Terminal Aerodrome Forecast
Issued by NWS

Current Version | Previous Version | Text Only | Print | Product List | Glossary On
Versions: 1 2 3 4 5 6 7 8 9 10 11 12 13 14 15 16 17 18 19
000
FTUS45 KABQ 170103 AAA
TAFFMN
TAF AMD
KFMN 170103Z 1701/1724 28010KT P6SM VCSH SCT005 OVC015
      TEMPO 1701/1703 4SM -SN BR BKN005
     FM170400 VRB04KT P6SM OVC010
     FM170700 08003KT 3/4SM BR OVC004
     FM171600 10005KT P6SM SCT010=

USA.gov is the U.S. government's official web portal to all federal, state and local government web resources and services.